sensor_id;sensor_type;location;lat;lon;timestamp;temperature;humidity
18805;DHT22;9530;48.930;9.526;2023-02-12T00:02:23;4.40;99.90
18805;DHT22;9530;48.930;9.526;2023-02-12T00:04:50;4.40;99.90
18805;DHT22;9530;48.930;9.526;2023-02-12T00:07:18;4.50;99.90
18805;DHT22;9530;48.930;9.526;2023-02-12T00:09:45;4.40;99.90
18805;DHT22;9530;48.930;9.526;2023-02-12T00:12:11;4.40;99.90
18805;DHT22;9530;48.930;9.526;2023-02-12T00:14:38;4.40;99.90
18805;DHT22;9530;48.930;9.526;2023-02-12T00:17:05;4.40;99.90
18805;DHT22;9530;48.930;9.526;2023-02-12T00:19:31;4.40;99.90
18805;DHT22;9530;48.930;9.526;2023-02-12T00:21:58;4.40;99.90
18805;DHT22;9530;48.930;9.526;2023-02-12T00:24:26;4.30;99.90
18805;DHT22;9530;48.930;9.526;2023-02-12T00:26:53;4.30;99.90
18805;DHT22;9530;48.930;9.526;2023-02-12T00:29:20;4.30;99.90
18805;DHT22;9530;48.930;9.526;2023-02-12T00:31:46;4.40;99.90
18805;DHT22;9530;48.930;9.526;2023-02-12T00:34:13;4.30;99.90
18805;DHT22;9530;48.930;9.526;2023-02-12T00:36:40;4.40;99.90
18805;DHT22;9530;48.930;9.526;2023-02-12T00:39:06;4.40;99.90
18805;DHT22;9530;48.930;9.526;2023-02-12T00:41:34;4.40;99.90
18805;DHT22;9530;48.930;9.526;2023-02-12T00:44:01;4.40;99.90
18805;DHT22;9530;48.930;9.526;2023-02-12T00:46:28;4.40;99.90
18805;DHT22;9530;48.930;9.526;2023-02-12T00:48:54;4.40;99.90
18805;DHT22;9530;48.930;9.526;2023-02-12T00:51:21;4.40;99.90
18805;DHT22;9530;48.930;9.526;2023-02-12T00:53:47;4.40;99.90
18805;DHT22;9530;48.930;9.526;2023-02-12T00:56:14;4.40;99.90
18805;DHT22;9530;48.930;9.526;2023-02-12T00:58:42;4.40;99.90
18805;DHT22;9530;48.930;9.526;2023-02-12T01:01:09;4.40;99.90
18805;DHT22;9530;48.930;9.526;2023-02-12T01:03:36;4.40;99.90
18805;DHT22;9530;48.930;9.526;2023-02-12T01:06:03;4.40;99.90
18805;DHT22;9530;48.930;9.526;2023-02-12T01:08:30;4.40;99.90
18805;DHT22;9530;48.930;9.526;2023-02-12T01:10:59;4.40;99.90
18805;DHT22;9530;48.930;9.526;2023-02-12T01:13:26;4.30;99.90
18805;DHT22;9530;48.930;9.526;2023-02-12T01:16:03;4.30;99.90
18805;DHT22;9530;48.930;9.526;2023-02-12T01:18:33;4.30;99.90
18805;DHT22;9530;48.930;9.526;2023-02-12T01:21:00;4.30;99.90
18805;DHT22;9530;48.930;9.526;2023-02-12T01:23:27;4.40;99.90
18805;DHT22;9530;48.930;9.526;2023-02-12T01:25:53;4.40;99.90
18805;DHT22;9530;48.930;9.526;2023-02-12T01:28:20;4.40;99.90
18805;DHT22;9530;48.930;9.526;2023-02-12T01:30:47;4.30;99.90
18805;DHT22;9530;48.930;9.526;2023-02-12T01:33:15;4.20;99.90
18805;DHT22;9530;48.930;9.526;2023-02-12T01:35:41;4.20;99.90
18805;DHT22;9530;48.930;9.526;2023-02-12T01:38:08;4.20;99.90
18805;DHT22;9530;48.930;9.526;2023-02-12T01:40:35;4.20;99.90
18805;DHT22;9530;48.930;9.526;2023-02-12T01:43:03;4.30;99.90
18805;DHT22;9530;48.930;9.526;2023-02-12T01:45:51;4.30;99.90
18805;DHT22;9530;48.930;9.526;2023-02-12T01:48:25;4.30;99.90
18805;DHT22;9530;48.930;9.526;2023-02-12T01:50:53;4.30;99.90
18805;DHT22;9530;48.930;9.526;2023-02-12T01:53:23;4.30;99.90
18805;DHT22;9530;48.930;9.526;2023-02-12T01:55:57;4.20;99.90
18805;DHT22;9530;48.930;9.526;2023-02-12T01:58:25;4.30;99.90
18805;DHT22;9530;48.930;9.526;2023-02-12T02:00:54;4.30;99.90
18805;DHT22;9530;48.930;9.526;2023-02-12T02:03:22;4.20;99.90
18805;DHT22;9530;48.930;9.526;2023-02-12T02:05:54;4.10;99.90
18805;DHT22;9530;48.930;9.526;2023-02-12T02:08:22;4.10;99.90
18805;DHT22;9530;48.930;9.526;2023-02-12T02:10:49;4.10;99.90
18805;DHT22;9530;48.930;9.526;2023-02-12T02:13:15;4.10;99.90
18805;DHT22;9530;48.930;9.526;2023-02-12T02:16:05;4.20;99.90
18805;DHT22;9530;48.930;9.526;2023-02-12T02:18:40;4.20;99.90
18805;DHT22;9530;48.930;9.526;2023-02-12T02:27:19;4.20;99.90
18805;DHT22;9530;48.930;9.526;2023-02-12T02:30:15;4.20;99.90
18805;DHT22;9530;48.930;9.526;2023-02-12T02:32:53;4.20;99.90
18805;DHT22;9530;48.930;9.526;2023-02-12T02:35:25;4.10;99.90
18805;DHT22;9530;48.930;9.526;2023-02-12T02:38:04;4.10;99.90
18805;DHT22;9530;48.930;9.526;2023-02-12T02:40:38;4.20;99.90
18805;DHT22;9530;48.930;9.526;2023-02-12T02:43:08;4.30;99.90
18805;DHT22;9530;48.930;9.526;2023-02-12T02:45:41;4.30;99.90
18805;DHT22;9530;48.930;9.526;2023-02-12T02:48:15;4.30;99.90
18805;DHT22;9530;48.930;9.526;2023-02-12T02:50:47;4.30;99.90
18805;DHT22;9530;48.930;9.526;2023-02-12T02:53:18;4.20;99.90
18805;DHT22;9530;48.930;9.526;2023-02-12T02:55:49;4.20;99.90
18805;DHT22;9530;48.930;9.526;2023-02-12T02:58:20;4.30;99.90
18805;DHT22;9530;48.930;9.526;2023-02-12T03:00:54;4.30;99.90
18805;DHT22;9530;48.930;9.526;2023-02-12T03:03:25;4.30;99.90
18805;DHT22;9530;48.930;9.526;2023-02-12T03:05:55;4.30;99.90
18805;DHT22;9530;48.930;9.526;2023-02-12T03:08:27;4.20;99.90
18805;DHT22;9530;48.930;9.526;2023-02-12T03:11:01;4.30;99.90
18805;DHT22;9530;48.930;9.526;2023-02-12T03:13:33;4.20;99.90
18805;DHT22;9530;48.930;9.526;2023-02-12T03:16:04;4.30;99.90
18805;DHT22;9530;48.930;9.526;2023-02-12T03:18:37;4.30;99.90
18805;DHT22;9530;48.930;9.526;2023-02-12T03:21:08;4.30;99.90
18805;DHT22;9530;48.930;9.526;2023-02-12T03:23:41;4.30;99.90
18805;DHT22;9530;48.930;9.526;2023-02-12T03:26:12;4.20;99.90
18805;DHT22;9530;48.930;9.526;2023-02-12T03:28:42;4.20;99.90
18805;DHT22;9530;48.930;9.526;2023-02-12T03:31:19;4.20;99.90
18805;DHT22;9530;48.930;9.526;2023-02-12T03:33:58;4.20;99.90
18805;DHT22;9530;48.930;9.526;2023-02-12T03:36:33;4.20;99.90
18805;DHT22;9530;48.930;9.526;2023-02-12T03:39:07;4.20;99.90
18805;DHT22;9530;48.930;9.526;2023-02-12T03:41:38;4.10;99.90
18805;DHT22;9530;48.930;9.526;2023-02-12T03:44:12;4.20;99.90
18805;DHT22;9530;48.930;9.526;2023-02-12T03:46:44;4.30;99.90
18805;DHT22;9530;48.930;9.526;2023-02-12T03:49:20;4.20;99.90
18805;DHT22;9530;48.930;9.526;2023-02-12T03:51:47;4.30;99.90
18805;DHT22;9530;48.930;9.526;2023-02-12T03:54:18;4.20;99.90
18805;DHT22;9530;48.930;9.526;2023-02-12T03:56:48;4.20;99.90
18805;DHT22;9530;48.930;9.526;2023-02-12T03:59:17;4.20;99.90
18805;DHT22;9530;48.930;9.526;2023-02-12T04:01:46;4.30;99.90
18805;DHT22;9530;48.930;9.526;2023-02-12T04:04:14;4.20;99.90
18805;DHT22;9530;48.930;9.526;2023-02-12T04:06:41;4.20;99.90
18805;DHT22;9530;48.930;9.526;2023-02-12T04:09:09;4.20;99.90
18805;DHT22;9530;48.930;9.526;2023-02-12T04:11:46;4.10;99.90
18805;DHT22;9530;48.930;9.526;2023-02-12T04:14:35;4.20;99.90
18805;DHT22;9530;48.930;9.526;2023-02-12T04:17:11;4.20;99.90
18805;DHT22;9530;48.930;9.526;2023-02-12T04:19:46;4.20;99.90
18805;DHT22;9530;48.930;9.526;2023-02-12T04:22:26;4.20;99.90
18805;DHT22;9530;48.930;9.526;2023-02-12T04:25:02;4.20;99.90
18805;DHT22;9530;48.930;9.526;2023-02-12T04:27:36;4.10;99.90
18805;DHT22;9530;48.930;9.526;2023-02-12T04:30:07;4.20;99.90
18805;DHT22;9530;48.930;9.526;2023-02-12T04:32:43;4.20;99.90
18805;DHT22;9530;48.930;9.526;2023-02-12T04:35:17;4.20;99.90
18805;DHT22;9530;48.930;9.526;2023-02-12T04:37:48;4.10;99.90
18805;DHT22;9530;48.930;9.526;2023-02-12T04:40:17;4.10;99.90
18805;DHT22;9530;48.930;9.526;2023-02-12T04:42:47;4.10;99.90
18805;DHT22;9530;48.930;9.526;2023-02-12T04:45:19;4.00;99.90
18805;DHT22;9530;48.930;9.526;2023-02-12T04:47:48;4.10;99.90
18805;DHT22;9530;48.930;9.526;2023-02-12T04:50:14;4.20;99.90
18805;DHT22;9530;48.930;9.526;2023-02-12T04:52:41;4.20;99.90
18805;DHT22;9530;48.930;9.526;2023-02-12T04:55:08;4.10;99.90
18805;DHT22;9530;48.930;9.526;2023-02-12T04:57:35;4.10;99.90
18805;DHT22;9530;48.930;9.526;2023-02-12T05:00:03;4.10;99.90
18805;DHT22;9530;48.930;9.526;2023-02-12T05:02:30;4.10;99.90
18805;DHT22;9530;48.930;9.526;2023-02-12T05:04:59;4.10;99.90
18805;DHT22;9530;48.930;9.526;2023-02-12T05:07:26;4.10;99.90
18805;DHT22;9530;48.930;9.526;2023-02-12T05:09:53;4.20;99.90
18805;DHT22;9530;48.930;9.526;2023-02-12T05:12:20;4.10;99.90
18805;DHT22;9530;48.930;9.526;2023-02-12T05:14:46;4.10;99.90
18805;DHT22;9530;48.930;9.526;2023-02-12T05:17:13;4.10;99.90
18805;DHT22;9530;48.930;9.526;2023-02-12T05:19:40;4.10;99.90
18805;DHT22;9530;48.930;9.526;2023-02-12T05:22:08;4.10;99.90
18805;DHT22;9530;48.930;9.526;2023-02-12T05:24:34;4.10;99.90
18805;DHT22;9530;48.930;9.526;2023-02-12T05:27:02;4.10;99.90
18805;DHT22;9530;48.930;9.526;2023-02-12T05:29:29;4.10;99.90
18805;DHT22;9530;48.930;9.526;2023-02-12T05:31:55;4.10;99.90
18805;DHT22;9530;48.930;9.526;2023-02-12T05:34:22;4.10;99.90
18805;DHT22;9530;48.930;9.526;2023-02-12T05:36:49;4.00;99.90
18805;DHT22;9530;48.930;9.526;2023-02-12T05:39:17;4.10;99.90
18805;DHT22;9530;48.930;9.526;2023-02-12T05:41:44;4.00;99.90
18805;DHT22;9530;48.930;9.526;2023-02-12T05:44:10;4.00;99.90
18805;DHT22;9530;48.930;9.526;2023-02-12T05:46:39;4.00;99.90
18805;DHT22;9530;48.930;9.526;2023-02-12T05:49:06;3.90;99.90
18805;DHT22;9530;48.930;9.526;2023-02-12T05:51:33;3.80;99.90
18805;DHT22;9530;48.930;9.526;2023-02-12T05:54:02;3.70;99.90
18805;DHT22;9530;48.930;9.526;2023-02-12T05:56:32;3.70;99.90
18805;DHT22;9530;48.930;9.526;2023-02-12T05:59:01;3.60;99.90
18805;DHT22;9530;48.930;9.526;2023-02-12T06:01:30;3.50;99.90
18805;DHT22;9530;48.930;9.526;2023-02-12T06:03:57;3.40;99.90
18805;DHT22;9530;48.930;9.526;2023-02-12T06:06:24;3.30;99.90
18805;DHT22;9530;48.930;9.526;2023-02-12T06:08:51;3.20;99.90
18805;DHT22;9530;48.930;9.526;2023-02-12T06:11:18;3.10;99.90
18805;DHT22;9530;48.930;9.526;2023-02-12T06:13:47;3.10;99.90
18805;DHT22;9530;48.930;9.526;2023-02-12T06:16:18;3.20;99.90
18805;DHT22;9530;48.930;9.526;2023-02-12T06:18:46;3.20;99.90
18805;DHT22;9530;48.930;9.526;2023-02-12T06:21:12;3.30;99.90
18805;DHT22;9530;48.930;9.526;2023-02-12T06:23:39;3.30;99.90
18805;DHT22;9530;48.930;9.526;2023-02-12T06:26:06;3.40;99.90
18805;DHT22;9530;48.930;9.526;2023-02-12T06:28:32;3.50;99.90
18805;DHT22;9530;48.930;9.526;2023-02-12T06:31:01;3.50;99.90
18805;DHT22;9530;48.930;9.526;2023-02-12T06:33:27;3.60;99.90
18805;DHT22;9530;48.930;9.526;2023-02-12T06:35:54;3.60;99.90
18805;DHT22;9530;48.930;9.526;2023-02-12T06:38:21;3.70;99.90
18805;DHT22;9530;48.930;9.526;2023-02-12T06:40:47;3.70;99.90
18805;DHT22;9530;48.930;9.526;2023-02-12T06:43:14;3.70;99.90
18805;DHT22;9530;48.930;9.526;2023-02-12T06:45:41;3.80;99.90
18805;DHT22;9530;48.930;9.526;2023-02-12T06:48:09;3.90;99.90
18805;DHT22;9530;48.930;9.526;2023-02-12T06:50:35;3.90;99.90
18805;DHT22;9530;48.930;9.526;2023-02-12T06:53:02;4.00;99.90
18805;DHT22;9530;48.930;9.526;2023-02-12T06:55:28;4.10;99.90
18805;DHT22;9530;48.930;9.526;2023-02-12T06:57:55;4.20;99.90
18805;DHT22;9530;48.930;9.526;2023-02-12T07:00:22;4.10;99.90
18805;DHT22;9530;48.930;9.526;2023-02-12T07:02:53;4.20;99.90
18805;DHT22;9530;48.930;9.526;2023-02-12T07:05:21;4.20;99.90
18805;DHT22;9530;48.930;9.526;2023-02-12T07:07:48;4.30;99.90
18805;DHT22;9530;48.930;9.526;2023-02-12T07:10:15;4.40;99.90
18805;DHT22;9530;48.930;9.526;2023-02-12T07:12:42;4.50;99.90
18805;DHT22;9530;48.930;9.526;2023-02-12T07:15:09;4.60;99.90
18805;DHT22;9530;48.930;9.526;2023-02-12T07:17:36;4.70;99.90
18805;DHT22;9530;48.930;9.526;2023-02-12T07:20:03;4.70;99.90
18805;DHT22;9530;48.930;9.526;2023-02-12T07:22:34;4.80;99.90
18805;DHT22;9530;48.930;9.526;2023-02-12T07:25:01;5.00;99.90
18805;DHT22;9530;48.930;9.526;2023-02-12T07:27:28;5.00;99.90
18805;DHT22;9530;48.930;9.526;2023-02-12T07:29:54;5.10;99.90
18805;DHT22;9530;48.930;9.526;2023-02-12T07:32:21;5.20;99.90
18805;DHT22;9530;48.930;9.526;2023-02-12T07:34:48;5.20;99.90
18805;DHT22;9530;48.930;9.526;2023-02-12T07:37:14;5.20;99.90
18805;DHT22;9530;48.930;9.526;2023-02-12T07:39:48;5.20;99.90
18805;DHT22;9530;48.930;9.526;2023-02-12T07:42:15;5.20;99.90
18805;DHT22;9530;48.930;9.526;2023-02-12T07:44:42;5.10;99.90
18805;DHT22;9530;48.930;9.526;2023-02-12T07:47:08;5.20;99.90
18805;DHT22;9530;48.930;9.526;2023-02-12T07:49:35;5.20;99.90
18805;DHT22;9530;48.930;9.526;2023-02-12T07:52:02;5.20;99.90
18805;DHT22;9530;48.930;9.526;2023-02-12T07:54:28;5.10;99.90
18805;DHT22;9530;48.930;9.526;2023-02-12T07:56:56;5.10;99.90
18805;DHT22;9530;48.930;9.526;2023-02-12T07:59:25;5.20;99.90
18805;DHT22;9530;48.930;9.526;2023-02-12T08:01:53;5.20;99.90
18805;DHT22;9530;48.930;9.526;2023-02-12T08:04:22;5.20;99.90
18805;DHT22;9530;48.930;9.526;2023-02-12T08:06:51;5.20;99.90
18805;DHT22;9530;48.930;9.526;2023-02-12T08:09:20;5.30;99.90
18805;DHT22;9530;48.930;9.526;2023-02-12T08:11:47;5.30;99.90
18805;DHT22;9530;48.930;9.526;2023-02-12T08:14:17;5.40;99.90
18805;DHT22;9530;48.930;9.526;2023-02-12T08:16:45;5.50;99.90
18805;DHT22;9530;48.930;9.526;2023-02-12T08:19:12;5.50;99.90
18805;DHT22;9530;48.930;9.526;2023-02-12T08:21:39;5.60;99.90
18805;DHT22;9530;48.930;9.526;2023-02-12T08:24:05;5.60;99.90
18805;DHT22;9530;48.930;9.526;2023-02-12T08:26:34;5.60;99.90
18805;DHT22;9530;48.930;9.526;2023-02-12T08:29:03;5.70;99.90
18805;DHT22;9530;48.930;9.526;2023-02-12T08:31:33;5.80;99.90
18805;DHT22;9530;48.930;9.526;2023-02-12T08:34:00;5.80;99.90
18805;DHT22;9530;48.930;9.526;2023-02-12T08:36:29;5.80;99.90
18805;DHT22;9530;48.930;9.526;2023-02-12T08:38:57;5.90;99.90
18805;DHT22;9530;48.930;9.526;2023-02-12T08:41:25;5.90;99.90
18805;DHT22;9530;48.930;9.526;2023-02-12T08:43:54;5.90;99.90
18805;DHT22;9530;48.930;9.526;2023-02-12T08:46:22;6.10;99.90
18805;DHT22;9530;48.930;9.526;2023-02-12T08:48:52;6.20;99.90
18805;DHT22;9530;48.930;9.526;2023-02-12T08:51:22;6.30;99.90
18805;DHT22;9530;48.930;9.526;2023-02-12T08:53:51;6.40;99.90
18805;DHT22;9530;48.930;9.526;2023-02-12T08:56:19;6.40;99.90
18805;DHT22;9530;48.930;9.526;2023-02-12T08:58:46;6.50;99.90
18805;DHT22;9530;48.930;9.526;2023-02-12T09:01:15;6.60;99.90
18805;DHT22;9530;48.930;9.526;2023-02-12T09:03:42;6.90;99.90
18805;DHT22;9530;48.930;9.526;2023-02-12T09:06:11;7.00;99.90
18805;DHT22;9530;48.930;9.526;2023-02-12T09:08:39;7.00;99.90
18805;DHT22;9530;48.930;9.526;2023-02-12T09:11:07;7.00;99.90
18805;DHT22;9530;48.930;9.526;2023-02-12T09:13:34;7.10;99.90
18805;DHT22;9530;48.930;9.526;2023-02-12T09:16:03;7.20;99.90
18805;DHT22;9530;48.930;9.526;2023-02-12T09:18:30;7.30;99.90
18805;DHT22;9530;48.930;9.526;2023-02-12T09:20:59;7.40;99.90
18805;DHT22;9530;48.930;9.526;2023-02-12T09:23:28;7.40;99.90
18805;DHT22;9530;48.930;9.526;2023-02-12T09:25:55;7.50;99.90
18805;DHT22;9530;48.930;9.526;2023-02-12T09:28:22;7.70;99.90
18805;DHT22;9530;48.930;9.526;2023-02-12T09:30:48;7.80;99.90
18805;DHT22;9530;48.930;9.526;2023-02-12T09:33:16;7.80;99.90
18805;DHT22;9530;48.930;9.526;2023-02-12T09:35:43;8.00;99.90
18805;DHT22;9530;48.930;9.526;2023-02-12T09:38:09;8.10;99.90
18805;DHT22;9530;48.930;9.526;2023-02-12T09:40:44;8.20;99.90
18805;DHT22;9530;48.930;9.526;2023-02-12T09:43:17;8.30;99.90
18805;DHT22;9530;48.930;9.526;2023-02-12T09:45:51;8.40;99.90
18805;DHT22;9530;48.930;9.526;2023-02-12T09:48:42;8.30;99.90
18805;DHT22;9530;48.930;9.526;2023-02-12T09:51:11;8.30;99.90
18805;DHT22;9530;48.930;9.526;2023-02-12T09:53:40;8.30;99.90
18805;DHT22;9530;48.930;9.526;2023-02-12T09:56:14;8.40;99.90
18805;DHT22;9530;48.930;9.526;2023-02-12T09:58:45;8.60;99.90
18805;DHT22;9530;48.930;9.526;2023-02-12T10:01:14;8.60;99.90
18805;DHT22;9530;48.930;9.526;2023-02-12T10:03:43;8.80;99.90
18805;DHT22;9530;48.930;9.526;2023-02-12T10:06:13;8.90;99.90
18805;DHT22;9530;48.930;9.526;2023-02-12T10:08:57;8.90;99.90
18805;DHT22;9530;48.930;9.526;2023-02-12T10:11:45;9.00;99.90
18805;DHT22;9530;48.930;9.526;2023-02-12T10:17:12;9.20;99.90
18805;DHT22;9530;48.930;9.526;2023-02-12T10:19:57;9.30;99.90
18805;DHT22;9530;48.930;9.526;2023-02-12T10:22:32;9.30;99.90
18805;DHT22;9530;48.930;9.526;2023-02-12T10:25:11;9.40;99.90
18805;DHT22;9530;48.930;9.526;2023-02-12T10:27:45;9.50;99.90
18805;DHT22;9530;48.930;9.526;2023-02-12T10:30:18;9.50;99.90
18805;DHT22;9530;48.930;9.526;2023-02-12T10:32:49;9.40;99.90
18805;DHT22;9530;48.930;9.526;2023-02-12T10:35:18;9.30;99.90
18805;DHT22;9530;48.930;9.526;2023-02-12T10:37:51;9.40;99.90
18805;DHT22;9530;48.930;9.526;2023-02-12T10:40:23;9.50;99.90
18805;DHT22;9530;48.930;9.526;2023-02-12T10:42:53;9.30;99.90
18805;DHT22;9530;48.930;9.526;2023-02-12T10:45:29;9.40;99.90
18805;DHT22;9530;48.930;9.526;2023-02-12T10:48:07;9.40;99.90
18805;DHT22;9530;48.930;9.526;2023-02-12T10:50:47;9.70;99.90
18805;DHT22;9530;48.930;9.526;2023-02-12T10:53:19;9.80;99.90
18805;DHT22;9530;48.930;9.526;2023-02-12T10:55:46;9.80;99.90
18805;DHT22;9530;48.930;9.526;2023-02-12T10:58:20;9.90;99.90
18805;DHT22;9530;48.930;9.526;2023-02-12T11:00:55;9.80;99.90
18805;DHT22;9530;48.930;9.526;2023-02-12T11:03:27;9.90;99.90
18805;DHT22;9530;48.930;9.526;2023-02-12T11:05:54;10.00;99.90
18805;DHT22;9530;48.930;9.526;2023-02-12T11:08:30;10.20;99.90
18805;DHT22;9530;48.930;9.526;2023-02-12T11:11:04;10.40;99.90
18805;DHT22;9530;48.930;9.526;2023-02-12T11:13:34;10.10;99.90
18805;DHT22;9530;48.930;9.526;2023-02-12T11:16:01;10.20;99.90
18805;DHT22;9530;48.930;9.526;2023-02-12T11:18:30;10.20;99.90
18805;DHT22;9530;48.930;9.526;2023-02-12T11:20:59;10.00;99.90
18805;DHT22;9530;48.930;9.526;2023-02-12T11:23:29;9.90;99.90
18805;DHT22;9530;48.930;9.526;2023-02-12T11:26:00;10.00;99.90
18805;DHT22;9530;48.930;9.526;2023-02-12T11:28:28;9.90;99.90
18805;DHT22;9530;48.930;9.526;2023-02-12T11:30:58;10.00;99.90
18805;DHT22;9530;48.930;9.526;2023-02-12T11:33:29;10.10;99.90
18805;DHT22;9530;48.930;9.526;2023-02-12T11:35:58;10.10;99.90
18805;DHT22;9530;48.930;9.526;2023-02-12T11:38:29;10.20;99.90
18805;DHT22;9530;48.930;9.526;2023-02-12T11:41:07;10.20;99.90
18805;DHT22;9530;48.930;9.526;2023-02-12T11:43:45;10.00;99.90
18805;DHT22;9530;48.930;9.526;2023-02-12T11:46:19;10.20;99.90
18805;DHT22;9530;48.930;9.526;2023-02-12T11:48:47;10.40;99.90
18805;DHT22;9530;48.930;9.526;2023-02-12T11:51:18;10.50;99.90
18805;DHT22;9530;48.930;9.526;2023-02-12T11:53:49;10.50;99.90
18805;DHT22;9530;48.930;9.526;2023-02-12T11:56:16;10.40;99.90
18805;DHT22;9530;48.930;9.526;2023-02-12T11:58:44;10.40;99.90
18805;DHT22;9530;48.930;9.526;2023-02-12T12:01:16;10.20;99.90
18805;DHT22;9530;48.930;9.526;2023-02-12T12:03:52;10.30;99.90
18805;DHT22;9530;48.930;9.526;2023-02-12T12:06:26;10.50;99.90
18805;DHT22;9530;48.930;9.526;2023-02-12T12:08:59;10.60;99.90
18805;DHT22;9530;48.930;9.526;2023-02-12T12:11:31;10.70;99.90
18805;DHT22;9530;48.930;9.526;2023-02-12T12:14:03;10.70;99.90
18805;DHT22;9530;48.930;9.526;2023-02-12T12:16:37;10.80;99.90
18805;DHT22;9530;48.930;9.526;2023-02-12T12:19:28;10.80;99.90
18805;DHT22;9530;48.930;9.526;2023-02-12T12:22:22;10.70;99.90
18805;DHT22;9530;48.930;9.526;2023-02-12T12:24:55;10.70;99.90
18805;DHT22;9530;48.930;9.526;2023-02-12T12:27:29;10.80;99.90
18805;DHT22;9530;48.930;9.526;2023-02-12T12:30:19;10.80;99.90
18805;DHT22;9530;48.930;9.526;2023-02-12T12:32:50;10.70;99.90
18805;DHT22;9530;48.930;9.526;2023-02-12T12:35:25;10.70;99.90
18805;DHT22;9530;48.930;9.526;2023-02-12T12:37:57;10.70;99.90
18805;DHT22;9530;48.930;9.526;2023-02-12T12:40:37;10.70;99.90
18805;DHT22;9530;48.930;9.526;2023-02-12T12:43:12;10.70;99.90
18805;DHT22;9530;48.930;9.526;2023-02-12T12:46:04;10.80;99.90
18805;DHT22;9530;48.930;9.526;2023-02-12T12:48:47;10.70;99.90
18805;DHT22;9530;48.930;9.526;2023-02-12T12:51:29;10.90;99.90
18805;DHT22;9530;48.930;9.526;2023-02-12T12:54:17;11.00;99.90
18805;DHT22;9530;48.930;9.526;2023-02-12T12:56:51;11.00;99.90
18805;DHT22;9530;48.930;9.526;2023-02-12T13:02:55;10.60;99.90
18805;DHT22;9530;48.930;9.526;2023-02-12T13:05:53;10.40;99.90
18805;DHT22;9530;48.930;9.526;2023-02-12T13:08:43;10.30;99.90
18805;DHT22;9530;48.930;9.526;2023-02-12T13:11:26;10.30;99.90
18805;DHT22;9530;48.930;9.526;2023-02-12T13:14:03;10.40;99.90
18805;DHT22;9530;48.930;9.526;2023-02-12T13:16:36;10.40;99.90
18805;DHT22;9530;48.930;9.526;2023-02-12T13:19:11;10.40;99.90
18805;DHT22;9530;48.930;9.526;2023-02-12T13:21:47;10.20;99.90
18805;DHT22;9530;48.930;9.526;2023-02-12T13:24:23;10.10;99.90
18805;DHT22;9530;48.930;9.526;2023-02-12T13:26:55;10.00;99.90
18805;DHT22;9530;48.930;9.526;2023-02-12T13:29:26;9.80;99.90
18805;DHT22;9530;48.930;9.526;2023-02-12T13:31:56;9.70;99.90
18805;DHT22;9530;48.930;9.526;2023-02-12T13:34:26;9.90;99.90
18805;DHT22;9530;48.930;9.526;2023-02-12T13:36:56;10.00;99.90
18805;DHT22;9530;48.930;9.526;2023-02-12T13:39:30;10.10;99.90
18805;DHT22;9530;48.930;9.526;2023-02-12T13:42:07;10.20;99.90
18805;DHT22;9530;48.930;9.526;2023-02-12T13:44:42;10.20;99.90
18805;DHT22;9530;48.930;9.526;2023-02-12T13:47:16;10.30;99.90
18805;DHT22;9530;48.930;9.526;2023-02-12T13:49:50;10.20;99.90
18805;DHT22;9530;48.930;9.526;2023-02-12T13:52:24;10.30;99.90
18805;DHT22;9530;48.930;9.526;2023-02-12T13:55:10;10.30;99.90
18805;DHT22;9530;48.930;9.526;2023-02-12T13:57:43;10.40;99.90
18805;DHT22;9530;48.930;9.526;2023-02-12T14:03:10;10.40;99.90
18805;DHT22;9530;48.930;9.526;2023-02-12T14:05:36;10.30;99.90
18805;DHT22;9530;48.930;9.526;2023-02-12T14:08:04;10.20;99.90
18805;DHT22;9530;48.930;9.526;2023-02-12T14:10:35;10.00;99.90
18805;DHT22;9530;48.930;9.526;2023-02-12T14:13:12;10.10;99.90
18805;DHT22;9530;48.930;9.526;2023-02-12T14:15:41;10.10;99.90
18805;DHT22;9530;48.930;9.526;2023-02-12T14:18:24;10.00;99.90
18805;DHT22;9530;48.930;9.526;2023-02-12T14:27:24;10.10;99.90
18805;DHT22;9530;48.930;9.526;2023-02-12T14:35:43;10.30;99.90
18805;DHT22;9530;48.930;9.526;2023-02-12T14:41:29;10.30;99.90
18805;DHT22;9530;48.930;9.526;2023-02-12T14:47:15;10.30;99.90
18805;DHT22;9530;48.930;9.526;2023-02-12T14:50:05;10.30;99.90
18805;DHT22;9530;48.930;9.526;2023-02-12T14:52:38;10.30;99.90
18805;DHT22;9530;48.930;9.526;2023-02-12T14:55:17;10.40;99.90
18805;DHT22;9530;48.930;9.526;2023-02-12T14:57:45;10.40;99.90
18805;DHT22;9530;48.930;9.526;2023-02-12T15:00:21;10.40;99.90
18805;DHT22;9530;48.930;9.526;2023-02-12T15:02:53;10.30;99.90
18805;DHT22;9530;48.930;9.526;2023-02-12T15:05:25;10.30;99.90
18805;DHT22;9530;48.930;9.526;2023-02-12T15:07:56;10.20;99.90
18805;DHT22;9530;48.930;9.526;2023-02-12T15:10:28;10.20;99.90
18805;DHT22;9530;48.930;9.526;2023-02-12T15:13:04;10.10;99.90
18805;DHT22;9530;48.930;9.526;2023-02-12T15:15:38;10.00;99.90
18805;DHT22;9530;48.930;9.526;2023-02-12T15:18:10;10.10;99.90
18805;DHT22;9530;48.930;9.526;2023-02-12T15:20:45;10.20;99.90
18805;DHT22;9530;48.930;9.526;2023-02-12T15:23:41;10.10;99.90
18805;DHT22;9530;48.930;9.526;2023-02-12T15:26:13;10.00;99.90
18805;DHT22;9530;48.930;9.526;2023-02-12T15:28:41;10.00;99.90
18805;DHT22;9530;48.930;9.526;2023-02-12T15:31:08;9.90;99.90
18805;DHT22;9530;48.930;9.526;2023-02-12T15:33:39;9.90;99.90
18805;DHT22;9530;48.930;9.526;2023-02-12T15:36:10;9.80;99.90
18805;DHT22;9530;48.930;9.526;2023-02-12T15:38:41;9.80;99.90
18805;DHT22;9530;48.930;9.526;2023-02-12T15:41:21;9.70;99.90
18805;DHT22;9530;48.930;9.526;2023-02-12T15:43:48;9.80;99.90
18805;DHT22;9530;48.930;9.526;2023-02-12T15:46:16;9.70;99.90
18805;DHT22;9530;48.930;9.526;2023-02-12T15:48:44;9.70;99.90
18805;DHT22;9530;48.930;9.526;2023-02-12T15:51:19;9.50;99.90
18805;DHT22;9530;48.930;9.526;2023-02-12T15:53:48;9.40;99.90
18805;DHT22;9530;48.930;9.526;2023-02-12T15:56:16;9.50;99.90
18805;DHT22;9530;48.930;9.526;2023-02-12T15:58:47;9.50;99.90
18805;DHT22;9530;48.930;9.526;2023-02-12T16:01:16;9.30;99.90
18805;DHT22;9530;48.930;9.526;2023-02-12T16:03:48;9.30;99.90
18805;DHT22;9530;48.930;9.526;2023-02-12T16:06:18;9.20;99.90
18805;DHT22;9530;48.930;9.526;2023-02-12T16:08:48;9.10;99.90
18805;DHT22;9530;48.930;9.526;2023-02-12T16:11:18;9.00;99.90
18805;DHT22;9530;48.930;9.526;2023-02-12T16:13:48;9.00;99.90
18805;DHT22;9530;48.930;9.526;2023-02-12T16:16:22;8.90;99.90
18805;DHT22;9530;48.930;9.526;2023-02-12T16:19:17;8.70;99.90
18805;DHT22;9530;48.930;9.526;2023-02-12T16:21:47;8.50;99.90
18805;DHT22;9530;48.930;9.526;2023-02-12T16:24:21;8.30;99.90
18805;DHT22;9530;48.930;9.526;2023-02-12T16:26:49;8.20;99.90
18805;DHT22;9530;48.930;9.526;2023-02-12T16:29:17;8.00;99.90
18805;DHT22;9530;48.930;9.526;2023-02-12T16:31:55;7.90;99.90
18805;DHT22;9530;48.930;9.526;2023-02-12T16:34:28;7.80;99.90
18805;DHT22;9530;48.930;9.526;2023-02-12T16:36:56;7.70;99.90
18805;DHT22;9530;48.930;9.526;2023-02-12T16:42:24;7.10;99.90
18805;DHT22;9530;48.930;9.526;2023-02-12T16:44:53;6.90;99.90
18805;DHT22;9530;48.930;9.526;2023-02-12T16:47:21;6.80;99.90
18805;DHT22;9530;48.930;9.526;2023-02-12T16:49:53;6.70;99.90
18805;DHT22;9530;48.930;9.526;2023-02-12T16:52:33;6.40;99.90
18805;DHT22;9530;48.930;9.526;2023-02-12T16:55:00;6.20;99.90
18805;DHT22;9530;48.930;9.526;2023-02-12T16:57:27;5.80;99.90
18805;DHT22;9530;48.930;9.526;2023-02-12T16:59:53;5.60;99.90